Time;durP1;ratioP1;P1;durP2;ratioP2;P2;SDS_P1;SDS_P2;PMS_P1;PMS_P2;Temp;Humidity;BMP_temperature;BMP_pressure;BME280_temperature;BME280_humidity;BME280_pressure;Samples;Min_cycle;Max_cycle;Signal;HPM_P1;HPM_P2
2021/12/15 00:01:45;;;;;;;72.03;29.77;;;9.80;99.90;;;;;;5009548;28;20055;-76
2021/12/15 00:04:11;;;;;;;77.72;29.02;;;9.80;99.90;;;;;;5011603;28;20056;-76
2021/12/15 00:06:38;;;;;;;63.97;29.70;;;9.40;99.90;;;;;;5009589;28;20050;-76
2021/12/15 00:09:07;;;;;;;64.40;28.02;;;9.80;99.90;;;;;;5010791;28;20100;-76
2021/12/15 00:11:36;;;;;;;65.60;26.90;;;9.80;99.90;;;;;;5009537;28;20127;-76
2021/12/15 00:14:05;;;;;;;63.65;27.25;;;9.80;99.90;;;;;;5009240;28;20038;-76
2021/12/15 00:16:30;;;;;;;68.88;27.00;;;9.80;99.90;;;;;;5008768;28;20098;-76
2021/12/15 00:18:56;;;;;;;79.03;28.00;;;9.80;99.90;;;;;;5009496;28;20473;-76
2021/12/15 00:21:22;;;;;;;69.05;27.42;;;9.80;99.90;;;;;;5010376;28;20076;-76
2021/12/15 00:23:48;;;;;;;69.72;27.25;;;9.80;99.90;;;;;;5008153;28;20477;-76
2021/12/15 00:26:15;;;;;;;63.60;26.20;;;9.80;99.90;;;;;;5010187;28;20075;-76
2021/12/15 00:28:43;;;;;;;61.90;26.02;;;9.80;99.90;;;;;;5025443;28;20050;-76
2021/12/15 00:31:09;;;;;;;69.00;27.58;;;9.80;99.90;;;;;;5008577;28;20125;-76
2021/12/15 00:33:37;;;;;;;65.45;26.90;;;9.80;99.90;;;;;;5009555;28;20058;-76
2021/12/15 00:36:03;;;;;;;64.32;28.10;;;9.90;99.90;;;;;;5008642;28;20045;-76
2021/12/15 00:38:29;;;;;;;71.38;28.90;;;9.90;99.90;;;;;;5009807;28;20054;-76
2021/12/15 00:40:54;;;;;;;65.30;25.63;;;9.90;99.90;;;;;;5009036;28;20045;-76
2021/12/15 00:43:20;;;;;;;67.63;26.73;;;9.90;99.90;;;;;;5009165;28;20132;-76
2021/12/15 00:45:46;;;;;;;67.35;27.98;;;9.90;99.90;;;;;;5009272;28;20046;-76
2021/12/15 00:48:12;;;;;;;70.43;27.95;;;9.90;99.90;;;;;;5010758;28;20490;-76
2021/12/15 00:50:39;;;;;;;69.28;28.52;;;9.90;99.90;;;;;;5009576;28;20048;-76
2021/12/15 00:53:06;;;;;;;67.47;26.98;;;9.90;99.90;;;;;;5010073;28;20046;-76
2021/12/15 00:55:32;;;;;;;63.72;28.40;;;9.90;99.90;;;;;;5008858;28;20038;-76
2021/12/15 00:57:59;;;;;;;70.30;29.05;;;9.90;99.90;;;;;;5008721;28;20046;-76
2021/12/15 01:00:29;;;;;;;58.13;27.92;;;9.90;99.90;;;;;;5009712;28;20038;-76
2021/12/15 01:02:56;;;;;;;65.63;28.00;;;9.90;99.90;;;;;;5013816;28;20049;-76
2021/12/15 01:05:24;;;;;;;56.17;27.45;;;9.90;99.90;;;;;;5012920;28;20500;-76
2021/12/15 01:07:50;;;;;;;67.25;30.65;;;9.90;99.90;;;;;;5013265;28;20145;-76
2021/12/15 01:10:23;;;;;;;66.47;27.88;;;9.90;99.90;;;;;;5014303;28;20124;-76
2021/12/15 01:21:06;;;;;;;59.97;27.33;;;9.90;99.90;;;;;;5029121;28;20060;-76
2021/12/15 01:23:32;;;;;;;67.72;28.85;;;9.90;99.90;;;;;;5012585;28;20060;-76
2021/12/15 01:26:06;;;;;;;63.35;28.73;;;9.90;99.90;;;;;;5013493;28;20046;-76
2021/12/15 01:28:32;;;;;;;62.40;28.15;;;9.90;99.90;;;;;;5013220;28;20049;-76
2021/12/15 01:30:59;;;;;;;62.20;28.77;;;9.90;99.90;;;;;;5012742;28;20060;-76
2021/12/15 01:33:27;;;;;;;63.88;29.48;;;9.90;99.90;;;;;;5010146;28;20084;-76
2021/12/15 01:35:55;;;;;;;56.70;26.67;;;9.90;99.90;;;;;;5003409;28;20132;-76
2021/12/15 01:38:23;;;;;;;68.57;29.50;;;9.90;99.90;;;;;;5014309;28;20453;-76
2021/12/15 01:40:49;;;;;;;65.95;29.58;;;9.90;99.90;;;;;;5012887;28;20049;-76
2021/12/15 01:43:17;;;;;;;61.03;28.58;;;9.90;99.90;;;;;;5013928;28;20041;-76
2021/12/15 01:48:30;;;;;;;65.47;27.67;;;9.90;99.90;;;;;;5029483;28;20107;-76
2021/12/15 01:50:57;;;;;;;61.78;28.33;;;9.90;99.90;;;;;;5013046;28;20501;-76
2021/12/15 01:53:22;;;;;;;68.40;29.17;;;9.90;99.90;;;;;;5011473;28;20042;-77
2021/12/15 01:55:49;;;;;;;60.15;28.08;;;9.90;99.90;;;;;;5012580;28;20046;-76
2021/12/15 01:58:15;;;;;;;64.45;29.15;;;9.90;99.90;;;;;;5013461;28;20042;-76
2021/12/15 02:00:46;;;;;;;67.45;29.35;;;9.90;99.90;;;;;;5011455;28;20050;-76
2021/12/15 02:03:12;;;;;;;66.97;29.17;;;9.90;99.90;;;;;;5011322;28;20057;-76
2021/12/15 02:05:39;;;;;;;69.25;30.50;;;9.90;99.90;;;;;;5022831;28;20049;-76
2021/12/15 02:08:07;;;;;;;60.83;28.25;;;9.90;99.90;;;;;;5011252;28;20137;-76
2021/12/15 02:10:36;;;;;;;60.40;28.88;;;9.90;99.90;;;;;;5012486;28;20413;-76
2021/12/15 02:13:05;;;;;;;70.40;29.17;;;9.90;99.90;;;;;;5010445;28;20054;-76
2021/12/15 02:15:36;;;;;;;67.95;30.27;;;10.00;99.90;;;;;;5011501;28;20116;-76
2021/12/15 02:18:04;;;;;;;59.05;27.67;;;9.90;99.90;;;;;;5012381;28;20057;-76
2021/12/15 02:20:39;;;;;;;69.28;29.13;;;10.00;99.90;;;;;;5012745;28;20042;-76
2021/12/15 02:23:07;;;;;;;64.13;29.85;;;10.00;99.90;;;;;;5012799;28;20109;-76
2021/12/15 02:25:33;;;;;;;60.53;27.00;;;10.00;99.90;;;;;;5011862;28;20053;-76
2021/12/15 02:28:01;;;;;;;63.05;27.70;;;10.00;99.90;;;;;;5028441;28;20473;-76
2021/12/15 02:30:45;;;;;;;71.97;28.55;;;10.00;99.90;;;;;;5012942;28;20046;-76
2021/12/15 02:38:28;;;;;;;62.40;30.10;;;10.00;99.90;;;;;;5013027;28;20505;-76
2021/12/15 02:41:01;;;;;;;64.45;27.60;;;10.00;99.90;;;;;;5010576;28;20045;-76
2021/12/15 02:43:27;;;;;;;66.50;28.55;;;10.00;99.90;;;;;;5010850;28;20464;-76
2021/12/15 02:45:52;;;;;;;65.60;28.85;;;10.00;99.90;;;;;;5012422;28;20129;-76
2021/12/15 02:48:18;;;;;;;64.20;29.08;;;10.00;99.90;;;;;;5011302;28;20393;-76
2021/12/15 02:50:44;;;;;;;67.82;31.05;;;10.00;99.90;;;;;;5010735;28;20076;-76
2021/12/15 02:53:10;;;;;;;66.90;28.95;;;10.00;99.90;;;;;;5010465;28;20440;-75
2021/12/15 02:55:37;;;;;;;67.03;30.20;;;10.20;99.90;;;;;;5009257;28;20038;-76
2021/12/15 02:58:03;;;;;;;65.72;28.83;;;10.00;99.90;;;;;;5011648;28;20069;-76
2021/12/15 03:00:43;;;;;;;69.38;30.05;;;10.00;99.90;;;;;;5015955;28;20081;-76
2021/12/15 03:03:53;;;;;;;72.55;29.98;;;10.00;99.90;;;;;;5010522;28;20107;-76
2021/12/15 03:06:20;;;;;;;62.03;30.08;;;10.00;99.90;;;;;;5008452;28;20132;-76
2021/12/15 03:09:00;;;;;;;70.57;30.25;;;10.00;99.90;;;;;;5011384;28;20480;-76
2021/12/15 03:16:58;;;;;;;75.25;32.08;;;10.00;99.90;;;;;;5012307;28;20135;-76
2021/12/15 03:19:24;;;;;;;74.10;32.35;;;10.00;99.90;;;;;;5011667;28;20050;-76
2021/12/15 03:21:50;;;;;;;70.63;31.33;;;10.00;99.90;;;;;;5010581;28;20057;-76
2021/12/15 03:24:20;;;;;;;71.85;31.10;;;10.00;99.90;;;;;;5010260;28;20049;-76
2021/12/15 03:26:57;;;;;;;67.72;30.67;;;10.00;99.90;;;;;;5011264;28;20041;-76
2021/12/15 03:35:17;;;;;;;69.22;31.13;;;10.00;99.90;;;;;;5003539;28;20280;-76
2021/12/15 03:37:48;;;;;;;71.18;30.95;;;10.00;99.90;;;;;;5010111;28;20061;-76
2021/12/15 03:40:19;;;;;;;74.85;30.77;;;10.00;99.90;;;;;;5011522;28;20053;-76
2021/12/15 03:42:50;;;;;;;72.55;30.88;;;10.00;99.90;;;;;;5010228;28;20038;-76
2021/12/15 03:45:27;;;;;;;66.18;30.48;;;10.00;99.90;;;;;;5010296;28;20544;-76
2021/12/15 03:47:54;;;;;;;65.60;29.80;;;10.00;99.90;;;;;;5008220;28;20050;-76
2021/12/15 03:50:22;;;;;;;76.28;32.17;;;10.00;99.90;;;;;;5009642;28;20132;-76
2021/12/15 03:52:49;;;;;;;70.43;29.63;;;10.00;99.90;;;;;;5010315;28;20061;-76
2021/12/15 03:55:27;;;;;;;71.60;30.17;;;10.00;99.90;;;;;;5008877;28;20048;-76
2021/12/15 03:57:54;;;;;;;79.80;32.03;;;10.00;99.90;;;;;;5010981;28;20482;-76
2021/12/15 04:00:21;;;;;;;71.28;30.02;;;10.00;99.90;;;;;;5010723;28;20111;-76
2021/12/15 04:02:47;;;;;;;72.15;32.33;;;10.00;99.90;;;;;;5026675;28;20489;-76
2021/12/15 04:05:15;;;;;;;77.28;32.80;;;10.00;99.90;;;;;;5010115;28;20034;-76
2021/12/15 04:07:42;;;;;;;73.95;31.58;;;10.00;99.90;;;;;;5008657;28;20054;-76
2021/12/15 04:10:12;;;;;;;73.95;31.08;;;10.00;99.90;;;;;;5009237;28;20121;-76
2021/12/15 04:12:37;;;;;;;76.35;34.10;;;10.00;99.90;;;;;;5009432;28;20045;-76
2021/12/15 04:18:04;;;;;;;72.55;31.95;;;10.00;99.90;;;;;;4978613;28;20061;-76
2021/12/15 04:20:32;;;;;;;81.22;32.90;;;10.00;99.90;;;;;;5002614;28;20120;-76
2021/12/15 04:22:58;;;;;;;72.78;31.35;;;9.90;99.90;;;;;;5009418;28;20054;-76
2021/12/15 04:25:30;;;;;;;78.97;31.08;;;10.00;99.90;;;;;;5010626;28;20049;-76
2021/12/15 04:28:02;;;;;;;73.65;30.63;;;10.00;99.90;;;;;;5010167;28;20136;-76
2021/12/15 04:30:29;;;;;;;71.32;30.42;;;10.00;99.90;;;;;;5009744;28;20046;-76
2021/12/15 04:32:58;;;;;;;81.40;32.70;;;10.00;99.90;;;;;;5008093;28;20068;-76
2021/12/15 04:35:25;;;;;;;80.00;32.53;;;10.00;99.90;;;;;;5007140;28;20037;-76
2021/12/15 04:37:52;;;;;;;68.80;31.10;;;10.00;99.90;;;;;;5009362;28;20064;-76
2021/12/15 04:40:21;;;;;;;77.28;31.65;;;10.00;99.90;;;;;;5009463;28;20048;-76
2021/12/15 04:42:47;;;;;;;66.30;29.13;;;10.00;99.90;;;;;;4989595;28;20046;-76
2021/12/15 04:45:15;;;;;;;72.30;31.20;;;10.00;99.90;;;;;;4990310;28;20081;-76
2021/12/15 04:47:41;;;;;;;74.40;30.42;;;10.00;99.90;;;;;;5008333;28;20509;-76
2021/12/15 04:50:08;;;;;;;82.38;32.40;;;10.00;99.90;;;;;;5010105;28;20088;-76
2021/12/15 04:52:34;;;;;;;77.85;33.60;;;10.00;99.90;;;;;;5010538;28;20049;-76
2021/12/15 04:55:03;;;;;;;74.57;31.38;;;9.90;99.90;;;;;;5009730;28;20496;-76
2021/12/15 04:57:29;;;;;;;82.45;32.10;;;9.90;99.90;;;;;;5009143;28;20132;-76
2021/12/15 04:59:55;;;;;;;80.38;33.30;;;9.90;99.90;;;;;;5009712;28;20129;-76
2021/12/15 05:02:22;;;;;;;80.90;34.05;;;9.90;99.90;;;;;;5010467;28;20584;-76
2021/12/15 05:04:49;;;;;;;78.97;33.95;;;9.90;99.90;;;;;;5007847;28;20089;-76
2021/12/15 05:07:16;;;;;;;77.55;33.97;;;9.90;99.90;;;;;;5009641;28;20080;-76
2021/12/15 05:09:43;;;;;;;74.00;31.23;;;10.00;99.90;;;;;;5009014;28;20525;-76
2021/12/15 05:12:10;;;;;;;73.80;31.15;;;9.90;99.90;;;;;;5008504;28;20060;-76
2021/12/15 05:14:36;;;;;;;79.97;32.55;;;9.90;99.90;;;;;;5010618;28;20056;-76
2021/12/15 05:17:02;;;;;;;75.90;34.65;;;9.90;99.90;;;;;;5009533;28;20042;-76
2021/12/15 05:19:28;;;;;;;75.03;32.92;;;9.90;99.90;;;;;;5010736;28;20494;-76
2021/12/15 05:21:57;;;;;;;78.70;33.70;;;9.90;99.90;;;;;;5008383;28;20053;-76
2021/12/15 05:24:30;;;;;;;73.68;31.50;;;9.90;99.90;;;;;;5010089;28;20054;-76
2021/12/15 05:27:03;;;;;;;74.28;34.28;;;9.90;99.90;;;;;;5008891;28;20054;-76
2021/12/15 05:29:29;;;;;;;80.35;35.13;;;9.90;99.90;;;;;;5010393;28;20528;-76
2021/12/15 05:31:55;;;;;;;76.32;33.00;;;9.90;99.90;;;;;;5009533;28;20133;-75
2021/12/15 05:34:22;;;;;;;72.82;33.75;;;9.90;99.90;;;;;;5010672;28;20049;-76
2021/12/15 05:36:51;;;;;;;84.63;32.78;;;10.20;99.90;;;;;;5010426;28;20108;-76
2021/12/15 05:39:16;;;;;;;77.15;33.33;;;9.90;99.90;;;;;;5008641;28;20053;-76
2021/12/15 05:41:42;;;;;;;76.93;32.53;;;9.90;99.90;;;;;;5010607;28;20037;-76
2021/12/15 05:44:08;;;;;;;79.25;34.05;;;9.90;99.90;;;;;;5009511;28;20543;-75
2021/12/15 05:46:34;;;;;;;81.05;32.92;;;9.90;99.90;;;;;;5008851;28;20042;-76
2021/12/15 05:48:59;;;;;;;70.22;31.60;;;9.90;99.90;;;;;;5012209;28;20049;-76
2021/12/15 05:51:25;;;;;;;75.07;32.58;;;9.90;99.90;;;;;;5013014;28;20104;-76
2021/12/15 05:53:51;;;;;;;70.25;31.30;;;9.90;99.90;;;;;;5011807;28;20079;-76
2021/12/15 05:56:18;;;;;;;73.90;32.47;;;9.90;99.90;;;;;;4998704;28;20050;-76
2021/12/15 05:58:45;;;;;;;75.55;33.45;;;9.90;99.90;;;;;;5004580;28;20394;-76
2021/12/15 06:01:11;;;;;;;77.43;35.58;;;9.90;99.90;;;;;;5011043;28;20812;-76
2021/12/15 06:03:37;;;;;;;71.38;31.70;;;9.90;99.90;;;;;;5012629;28;20128;-76
2021/12/15 06:06:03;;;;;;;71.75;32.22;;;9.90;99.90;;;;;;5008483;28;20402;-76
2021/12/15 06:08:29;;;;;;;75.60;33.80;;;10.00;99.90;;;;;;5011358;28;20030;-76
2021/12/15 06:10:55;;;;;;;80.50;34.28;;;9.90;99.90;;;;;;5009439;28;20058;-78
2021/12/15 06:13:23;;;;;;;78.82;33.60;;;10.00;99.90;;;;;;5027605;28;20065;-76
2021/12/15 06:15:49;;;;;;;73.10;34.08;;;9.90;99.90;;;;;;5011644;28;20050;-76
2021/12/15 06:18:17;;;;;;;78.20;32.75;;;10.00;99.90;;;;;;5011968;28;20049;-75
2021/12/15 06:20:45;;;;;;;76.35;33.05;;;10.00;99.90;;;;;;5012475;28;20085;-76
2021/12/15 06:23:17;;;;;;;72.63;32.38;;;10.00;99.90;;;;;;5011488;28;20064;-75
2021/12/15 06:25:43;;;;;;;81.38;33.58;;;9.90;99.90;;;;;;5012557;28;20465;-75
2021/12/15 06:28:09;;;;;;;66.10;32.53;;;10.00;99.90;;;;;;5006123;28;20104;-75
2021/12/15 06:30:36;;;;;;;71.00;32.30;;;10.00;99.90;;;;;;5012390;28;20046;-76
2021/12/15 06:33:03;;;;;;;70.53;30.80;;;10.00;99.90;;;;;;5011291;28;20058;-76
2021/12/15 06:35:30;;;;;;;71.35;33.70;;;9.90;99.90;;;;;;5012046;28;20049;-76
2021/12/15 06:37:55;;;;;;;73.95;34.20;;;9.90;99.90;;;;;;5011151;28;20045;-75
2021/12/15 06:40:21;;;;;;;74.22;32.75;;;9.90;99.90;;;;;;5011483;28;20436;-76
2021/12/15 06:42:47;;;;;;;76.03;34.17;;;9.90;99.90;;;;;;5012424;28;20048;-76
2021/12/15 06:45:18;;;;;;;75.38;35.22;;;9.90;99.90;;;;;;5012421;28;20057;-76
2021/12/15 06:58:28;;;;;;;70.85;33.05;;;9.90;99.90;;;;;;5011031;28;20489;-76
2021/12/15 07:00:57;;;;;;;73.15;32.67;;;9.90;99.90;;;;;;5011673;28;20046;-75
2021/12/15 07:03:23;;;;;;;73.65;33.47;;;9.90;99.90;;;;;;5010396;28;20037;-76
2021/12/15 07:05:50;;;;;;;70.30;31.95;;;9.90;99.90;;;;;;5010534;28;20574;-76
2021/12/15 07:08:17;;;;;;;72.43;32.33;;;9.90;99.90;;;;;;5011274;28;20081;-76
2021/12/15 07:10:48;;;;;;;68.70;32.35;;;9.90;99.90;;;;;;5011444;28;20196;-75
2021/12/15 07:13:15;;;;;;;67.00;30.40;;;9.90;99.90;;;;;;5010987;28;20404;-75
2021/12/15 07:15:40;;;;;;;61.20;30.67;;;9.90;99.90;;;;;;5012051;28;20045;-76
2021/12/15 07:18:10;;;;;;;69.13;31.88;;;9.90;99.90;;;;;;5010268;28;20042;-76
2021/12/15 07:20:41;;;;;;;70.40;32.17;;;9.90;99.90;;;;;;5012107;28;20188;-78
2021/12/15 07:23:10;;;;;;;60.35;30.60;;;9.90;99.90;;;;;;5010635;28;20432;-77
2021/12/15 07:25:37;;;;;;;70.25;31.02;;;9.90;99.90;;;;;;5009484;28;20033;-77
2021/12/15 07:28:03;;;;;;;72.50;32.47;;;9.90;99.90;;;;;;5026829;28;20120;-76
2021/12/15 07:30:29;;;;;;;65.63;32.20;;;9.90;99.90;;;;;;5010726;28;20449;-78
2021/12/15 07:32:55;;;;;;;67.97;32.05;;;9.90;99.90;;;;;;5025858;28;20555;-78
2021/12/15 07:35:22;;;;;;;69.57;31.50;;;9.90;99.90;;;;;;5023969;28;20042;-79
2021/12/15 07:37:48;;;;;;;66.30;30.95;;;9.90;99.90;;;;;;5008816;28;20046;-77
2021/12/15 07:40:21;;;;;;;63.80;31.42;;;9.90;99.90;;;;;;5009235;28;20037;-77
2021/12/15 07:43:11;;;;;;;62.53;29.67;;;10.00;99.90;;;;;;5009364;28;20050;-77
2021/12/15 07:45:50;;;;;;;64.03;30.27;;;10.00;99.90;;;;;;5008775;28;20185;-78
2021/12/15 07:48:16;;;;;;;61.97;30.88;;;9.90;99.90;;;;;;5001886;28;20049;-77
2021/12/15 07:50:45;;;;;;;60.08;29.42;;;9.90;99.90;;;;;;5010351;28;20049;-77
2021/12/15 07:53:11;;;;;;;61.30;28.10;;;10.00;99.90;;;;;;5010784;28;20049;-77
2021/12/15 07:55:37;;;;;;;56.90;28.27;;;10.00;99.90;;;;;;5010534;28;20588;-77
2021/12/15 07:58:05;;;;;;;62.50;31.58;;;10.00;99.90;;;;;;5011152;28;20184;-77
2021/12/15 08:00:31;;;;;;;58.58;28.17;;;10.00;99.90;;;;;;5009962;28;20077;-78
2021/12/15 08:02:58;;;;;;;61.20;28.58;;;10.00;99.90;;;;;;5011040;28;20045;-78
2021/12/15 08:05:24;;;;;;;59.20;26.98;;;10.00;99.90;;;;;;5010021;28;20540;-78
2021/12/15 08:07:50;;;;;;;57.03;27.98;;;10.00;99.90;;;;;;5010516;28;20593;-77
2021/12/15 08:10:16;;;;;;;50.30;24.48;;;10.00;99.90;;;;;;5010561;28;20054;-77
2021/12/15 08:12:43;;;;;;;53.13;26.38;;;10.00;99.90;;;;;;5011011;28;20045;-77
2021/12/15 08:15:10;;;;;;;49.22;24.83;;;10.00;99.90;;;;;;5010078;28;20046;-77
2021/12/15 08:17:37;;;;;;;49.38;25.30;;;10.00;99.90;;;;;;5011341;28;20121;-77
2021/12/15 08:20:07;;;;;;;51.53;24.30;;;10.00;99.90;;;;;;5009290;28;20077;-77
2021/12/15 08:22:33;;;;;;;50.67;25.67;;;10.00;99.90;;;;;;5011334;28;20493;-78
2021/12/15 08:24:58;;;;;;;52.10;24.35;;;10.00;99.90;;;;;;5010768;28;20057;-77
2021/12/15 08:27:24;;;;;;;49.05;23.58;;;10.10;99.90;;;;;;5009462;28;20466;-77
2021/12/15 08:29:50;;;;;;;52.63;22.73;;;10.10;99.90;;;;;;5009592;28;20062;-77
2021/12/15 08:32:15;;;;;;;43.15;21.90;;;10.10;99.90;;;;;;5011200;28;20049;-77
2021/12/15 08:34:41;;;;;;;46.63;22.55;;;10.10;99.90;;;;;;5010548;28;20053;-77
2021/12/15 08:37:13;;;;;;;47.25;21.70;;;10.10;99.90;;;;;;5009543;28;20046;-77
2021/12/15 08:39:39;;;;;;;49.40;22.80;;;10.10;99.90;;;;;;5009818;28;20054;-77
2021/12/15 08:42:05;;;;;;;46.35;24.20;;;10.10;99.90;;;;;;5010236;28;20078;-77
2021/12/15 08:44:31;;;;;;;49.53;21.95;;;10.10;99.90;;;;;;5009777;28;20049;-77
2021/12/15 08:46:57;;;;;;;45.83;24.20;;;10.10;99.90;;;;;;5009567;28;20421;-77
2021/12/15 08:49:23;;;;;;;49.20;23.77;;;10.10;99.90;;;;;;5010645;28;20136;-77
2021/12/15 08:51:49;;;;;;;47.38;21.30;;;10.10;99.90;;;;;;5009782;28;20057;-77
2021/12/15 08:54:18;;;;;;;48.00;22.52;;;10.10;99.90;;;;;;5009930;28;20449;-77
2021/12/15 08:56:46;;;;;;;46.63;23.05;;;10.10;99.90;;;;;;5009251;28;20546;-77
2021/12/15 08:59:12;;;;;;;40.50;21.48;;;10.10;99.90;;;;;;5009770;28;20433;-77
2021/12/15 09:01:43;;;;;;;39.95;21.50;;;10.10;99.90;;;;;;5010014;28;20058;-77
2021/12/15 09:04:09;;;;;;;46.95;22.52;;;10.20;99.90;;;;;;5009537;28;20050;-78
2021/12/15 09:06:35;;;;;;;42.55;21.27;;;10.20;99.90;;;;;;5025784;28;20050;-78
2021/12/15 09:09:04;;;;;;;47.03;20.70;;;10.20;99.90;;;;;;5001329;28;20444;-79
2021/12/15 09:11:29;;;;;;;43.42;21.60;;;10.20;99.90;;;;;;5008166;28;20061;-79
2021/12/15 09:13:57;;;;;;;40.75;21.33;;;10.20;99.90;;;;;;5003304;28;20054;-78
2021/12/15 09:16:26;;;;;;;43.47;21.30;;;10.20;99.90;;;;;;4995481;28;20037;-78
2021/12/15 09:18:52;;;;;;;42.42;22.20;;;10.20;99.90;;;;;;5008967;28;20103;-78
2021/12/15 09:21:21;;;;;;;46.13;21.65;;;10.20;99.90;;;;;;5010592;28;20062;-78
2021/12/15 09:23:47;;;;;;;40.38;20.90;;;10.20;99.90;;;;;;5013417;28;20050;-78
2021/12/15 09:26:13;;;;;;;42.65;22.08;;;10.20;99.90;;;;;;5012117;28;20191;-77
2021/12/15 09:28:39;;;;;;;41.83;21.80;;;10.20;99.90;;;;;;5012360;28;20533;-77
2021/12/15 09:31:06;;;;;;;43.35;21.92;;;10.20;99.90;;;;;;5027406;28;20176;-78
2021/12/15 09:33:33;;;;;;;42.03;21.40;;;10.20;99.90;;;;;;5011141;28;20061;-77
2021/12/15 09:36:00;;;;;;;42.72;21.23;;;10.30;99.90;;;;;;5012480;28;20478;-77
2021/12/15 09:38:27;;;;;;;43.90;21.58;;;10.20;99.90;;;;;;5012428;28;20049;-77
2021/12/15 09:40:55;;;;;;;40.65;21.00;;;10.30;99.90;;;;;;5013536;28;20129;-78
2021/12/15 09:43:21;;;;;;;42.03;21.23;;;10.30;99.90;;;;;;5012735;28;20482;-78
2021/12/15 09:45:53;;;;;;;46.40;21.73;;;10.30;99.90;;;;;;5009587;28;20124;-77
2021/12/15 09:57:07;;;;;;;42.80;20.80;;;10.20;99.90;;;;;;5011417;28;20058;-77
2021/12/15 10:04:54;;;;;;;41.78;19.27;;;10.10;99.90;;;;;;5012438;28;20061;-78
2021/12/15 10:10:39;;;;;;;38.83;19.10;;;10.10;99.90;;;;;;5011661;28;20061;-77
2021/12/15 10:18:39;;;;;;;31.50;16.80;;;10.20;99.90;;;;;;5012924;28;20042;-78
2021/12/15 10:21:05;;;;;;;32.08;15.73;;;10.20;99.90;;;;;;5010893;28;20046;-77
2021/12/15 10:23:40;;;;;;;35.17;15.73;;;10.20;99.90;;;;;;5011788;28;20413;-78
2021/12/15 10:26:07;;;;;;;26.52;13.93;;;10.20;99.90;;;;;;5010815;28;20046;-78
2021/12/15 10:28:35;;;;;;;27.10;14.77;;;10.30;99.90;;;;;;5010652;28;20172;-78
2021/12/15 10:31:11;;;;;;;29.92;14.18;;;10.30;99.90;;;;;;5008745;28;20053;-78
2021/12/15 10:33:43;;;;;;;28.30;13.50;;;10.30;99.90;;;;;;5006564;28;20049;-78
2021/12/15 10:36:21;;;;;;;27.13;13.70;;;10.30;99.90;;;;;;5011375;28;20077;-78
2021/12/15 10:38:51;;;;;;;29.75;14.27;;;10.40;99.90;;;;;;5021120;28;20041;-78
2021/12/15 10:41:19;;;;;;;31.95;14.23;;;10.40;99.90;;;;;;5008102;28;20593;-78
2021/12/15 10:43:50;;;;;;;26.42;14.82;;;10.40;99.90;;;;;;5009186;28;20038;-78
2021/12/15 10:46:22;;;;;;;27.38;13.25;;;10.40;99.90;;;;;;5012725;28;20462;-78
2021/12/15 10:48:50;;;;;;;33.90;13.95;;;10.40;99.90;;;;;;5011008;28;20053;-78
2021/12/15 10:51:40;;;;;;;27.30;13.20;;;10.40;99.90;;;;;;5010873;28;20038;-78
2021/12/15 10:54:19;;;;;;;27.02;14.55;;;10.40;99.90;;;;;;5026932;28;20061;-78
2021/12/15 10:56:53;;;;;;;21.23;11.55;;;10.50;99.90;;;;;;5009652;28;20038;-77
2021/12/15 10:59:18;;;;;;;29.38;13.57;;;10.50;99.90;;;;;;5012315;28;20198;-79
2021/12/15 11:01:56;;;;;;;24.20;11.73;;;10.50;99.90;;;;;;5012040;28;20129;-78
2021/12/15 11:04:45;;;;;;;20.13;11.98;;;10.50;99.90;;;;;;5011784;28;20049;-79
2021/12/15 11:07:18;;;;;;;24.45;12.90;;;10.60;99.90;;;;;;5012549;28;20143;-79
2021/12/15 11:09:58;;;;;;;25.80;11.90;;;10.60;99.90;;;;;;5010957;28;20481;-77
2021/12/15 11:12:47;;;;;;;22.05;11.23;;;10.60;99.90;;;;;;5010452;28;20088;-78
2021/12/15 11:15:22;;;;;;;23.42;11.25;;;10.70;99.90;;;;;;5011695;28;20053;-77
2021/12/15 11:17:53;;;;;;;20.75;10.85;;;10.70;99.90;;;;;;5010314;28;20034;-76
2021/12/15 11:20:29;;;;;;;25.58;11.63;;;10.70;99.90;;;;;;5011104;28;20046;-77
2021/12/15 11:23:11;;;;;;;22.65;10.40;;;10.70;99.90;;;;;;5010706;28;20140;-77
2021/12/15 11:25:49;;;;;;;22.02;11.57;;;10.70;99.90;;;;;;5011836;28;20121;-80
2021/12/15 11:28:19;;;;;;;20.60;9.18;;;10.70;99.90;;;;;;5027529;28;20085;-77
2021/12/15 11:31:16;;;;;;;20.35;10.52;;;10.70;99.90;;;;;;5008818;28;20072;-77
2021/12/15 11:34:08;;;;;;;17.27;9.52;;;10.70;99.90;;;;;;4997660;28;20863;-77
2021/12/15 11:36:43;;;;;;;26.42;10.25;;;10.70;99.90;;;;;;5008820;28;20065;-77
2021/12/15 11:39:16;;;;;;;19.73;9.68;;;10.70;99.90;;;;;;5011067;28;20046;-77
2021/12/15 11:41:46;;;;;;;19.00;8.65;;;10.70;99.90;;;;;;5011863;28;20053;-77
2021/12/15 11:44:17;;;;;;;19.35;8.90;;;10.70;99.90;;;;;;5009412;28;20050;-77
2021/12/15 11:46:46;;;;;;;19.20;9.07;;;10.70;99.90;;;;;;5010332;28;20060;-77
2021/12/15 11:49:15;;;;;;;19.23;8.88;;;10.70;99.90;;;;;;5009818;28;20092;-78
2021/12/15 11:51:46;;;;;;;15.43;8.43;;;10.70;99.90;;;;;;5011307;28;20393;-77
2021/12/15 11:54:16;;;;;;;21.83;8.68;;;10.70;99.90;;;;;;5021468;28;20062;-77
2021/12/15 11:56:42;;;;;;;20.50;8.85;;;10.70;99.90;;;;;;5009360;28;20054;-77
2021/12/15 11:59:19;;;;;;;17.73;9.35;;;10.70;99.90;;;;;;5010802;28;20108;-77
2021/12/15 12:01:53;;;;;;;17.73;8.35;;;10.70;99.90;;;;;;5011458;28;20104;-77
2021/12/15 12:04:24;;;;;;;20.35;8.20;;;10.70;99.90;;;;;;5010510;28;20402;-77
2021/12/15 12:06:54;;;;;;;16.08;8.07;;;10.70;99.90;;;;;;5007686;28;20488;-77
2021/12/15 12:09:21;;;;;;;18.15;7.80;;;10.70;99.90;;;;;;5008653;28;20440;-77
2021/12/15 12:11:52;;;;;;;15.95;7.85;;;10.70;99.90;;;;;;5011152;28;20049;-77
2021/12/15 12:14:37;;;;;;;13.30;6.65;;;10.70;99.90;;;;;;5005215;28;20069;-77
2021/12/15 12:17:12;;;;;;;14.95;6.90;;;10.70;99.90;;;;;;5011249;28;20045;-77
2021/12/15 12:19:39;;;;;;;17.75;7.57;;;10.70;99.90;;;;;;5011038;28;20046;-77
2021/12/15 12:22:05;;;;;;;15.27;7.13;;;10.70;99.90;;;;;;5010612;28;20494;-77
2021/12/15 12:24:33;;;;;;;16.33;7.30;;;10.70;99.90;;;;;;5010288;28;20053;-77
2021/12/15 12:26:59;;;;;;;16.33;7.57;;;10.80;99.90;;;;;;5009060;28;20084;-77
2021/12/15 12:29:26;;;;;;;14.57;7.93;;;10.70;99.90;;;;;;5010822;28;20038;-78
2021/12/15 12:31:52;;;;;;;15.98;7.10;;;10.70;99.90;;;;;;5010010;28;20097;-78
2021/12/15 12:34:17;;;;;;;13.77;6.82;;;10.70;99.90;;;;;;5010306;28;20053;-77
2021/12/15 12:36:43;;;;;;;15.07;7.05;;;10.70;99.90;;;;;;5003960;28;20050;-77
2021/12/15 12:39:11;;;;;;;18.00;8.10;;;10.70;99.90;;;;;;5025620;28;20053;-77
2021/12/15 12:41:43;;;;;;;15.52;7.25;;;10.70;99.90;;;;;;5008919;28;20049;-76
2021/12/15 12:44:11;;;;;;;18.35;7.93;;;10.70;99.90;;;;;;5008415;28;20099;-77
2021/12/15 12:46:54;;;;;;;22.27;8.18;;;10.70;99.90;;;;;;5010091;28;20054;-77
2021/12/15 12:59:23;;;;;;;12.02;6.25;;;10.70;99.90;;;;;;5008480;28;20146;-77
2021/12/15 13:01:00;;;;;;;14.75;7.38;;;10.60;99.90;;;;;;5013905;28;20057;-76
2021/12/15 13:03:31;;;;;;;15.18;6.88;;;10.60;99.90;;;;;;5014016;28;20077;-76
2021/12/15 13:06:04;;;;;;;13.07;5.90;;;10.60;99.90;;;;;;5013453;28;20057;-77
2021/12/15 13:08:36;;;;;;;13.38;5.65;;;10.60;99.90;;;;;;5013600;28;20503;-77
2021/12/15 13:11:07;;;;;;;12.02;5.00;;;10.60;99.90;;;;;;5012419;28;20053;-76
2021/12/15 13:13:51;;;;;;;9.63;4.30;;;10.50;99.90;;;;;;5029658;28;20058;-77
2021/12/15 13:16:40;;;;;;;12.82;5.07;;;10.50;99.90;;;;;;5012704;28;20049;-77
2021/12/15 13:19:24;;;;;;;17.10;4.72;;;10.50;99.90;;;;;;5012762;28;20050;-76
2021/12/15 13:30:48;;;;;;;10.15;3.88;;;10.40;99.90;;;;;;5002878;28;20075;-79
2021/12/15 13:33:32;;;;;;;13.82;5.25;;;10.40;99.90;;;;;;5011175;28;20042;-77
2021/12/15 13:36:14;;;;;;;10.82;3.85;;;10.50;99.90;;;;;;5004626;28;20493;-77
2021/12/15 13:38:52;;;;;;;8.32;2.88;;;10.40;99.90;;;;;;5029542;28;20049;-77
2021/12/15 13:41:22;;;;;;;10.90;3.47;;;10.40;99.90;;;;;;5030167;28;20049;-77
2021/12/15 13:43:50;;;;;;;9.27;2.83;;;10.40;99.90;;;;;;5012064;28;20374;-78
2021/12/15 13:46:28;;;;;;;13.20;2.83;;;10.30;99.90;;;;;;5029312;28;20140;-78
2021/12/15 13:48:59;;;;;;;7.38;2.83;;;10.30;99.90;;;;;;5011352;28;20055;-76
2021/12/15 13:51:51;;;;;;;8.25;2.78;;;10.30;99.90;;;;;;5019618;28;20046;-77
2021/12/15 13:54:48;;;;;;;6.85;2.50;;;10.20;99.90;;;;;;5007854;28;20057;-77
2021/12/15 13:57:14;;;;;;;8.40;2.42;;;10.10;99.90;;;;;;5012879;28;20046;-76
2021/12/15 13:59:54;;;;;;;9.07;3.05;;;10.10;99.90;;;;;;5013373;28;20046;-76
2021/12/15 14:02:22;;;;;;;10.07;2.70;;;10.10;99.90;;;;;;5012535;28;20476;-75
2021/12/15 14:04:51;;;;;;;10.30;2.80;;;10.10;99.90;;;;;;4993558;28;20398;-76
2021/12/15 14:07:47;;;;;;;7.32;2.17;;;10.00;99.90;;;;;;4994938;28;20484;-76